Map

Track Data

SID SEASON NUMBER BASIN SUBBASIN NAME ISO_TIME NATURE LAT LON WMO_WIND WMO_PRES WMO_AGENCY TRACK_TYPE DIST2LAND LANDFALL IFLAG USA_AGENCY USA_ATCF_ID USA_LAT USA_LON USA_RECORD USA_STATUS USA_WIND USA_PRES USA_SSHS USA_R34_NE USA_R34_SE USA_R34_SW USA_R34_NW USA_R50_NE USA_R50_SE USA_R50_SW USA_R50_NW USA_R64_NE USA_R64_SE USA_R64_SW USA_R64_NW USA_POCI USA_ROCI USA_RMW USA_EYE TOKYO_LAT TOKYO_LON TOKYO_GRADE TOKYO_WIND TOKYO_PRES TOKYO_R50_DIR TOKYO_R50_LONG TOKYO_R50_SHORT TOKYO_R30_DIR TOKYO_R30_LONG TOKYO_R30_SHORT TOKYO_LAND CMA_LAT CMA_LON CMA_CAT CMA_WIND CMA_PRES HKO_LAT HKO_LON HKO_CAT HKO_WIND HKO_PRES NEWDELHI_LAT NEWDELHI_LON NEWDELHI_GRADE NEWDELHI_WIND NEWDELHI_PRES NEWDELHI_CI NEWDELHI_DP NEWDELHI_POCI REUNION_LAT REUNION_LON REUNION_TYPE REUNION_WIND REUNION_PRES REUNION_TNUM REUNION_CI REUNION_RMW REUNION_R34_NE REUNION_R34_SE REUNION_R34_SW REUNION_R34_NW REUNION_R50_NE REUNION_R50_SE REUNION_R50_SW REUNION_R50_NW REUNION_R64_NE REUNION_R64_SE REUNION_R64_SW REUNION_R64_NW BOM_LAT BOM_LON BOM_TYPE BOM_WIND BOM_PRES BOM_TNUM BOM_CI BOM_RMW BOM_R34_NE BOM_R34_SE BOM_R34_SW BOM_R34_NW BOM_R50_NE BOM_R50_SE BOM_R50_SW BOM_R50_NW BOM_R64_NE BOM_R64_SE BOM_R64_SW BOM_R64_NW BOM_ROCI BOM_POCI BOM_EYE BOM_POS_METHOD BOM_PRES_METHOD NADI_LAT NADI_LON NADI_CAT NADI_WIND NADI_PRES WELLINGTON_LAT WELLINGTON_LON WELLINGTON_WIND WELLINGTON_PRES DS824_LAT DS824_LON DS824_STAGE DS824_WIND DS824_PRES TD9636_LAT TD9636_LON TD9636_STAGE TD9636_WIND TD9636_PRES TD9635_LAT TD9635_LON TD9635_WIND TD9635_PRES TD9635_ROCI NEUMANN_LAT NEUMANN_LON NEUMANN_CLASS NEUMANN_WIND NEUMANN_PRES MLC_LAT MLC_LON MLC_CLASS MLC_WIND MLC_PRES USA_GUST BOM_GUST BOM_GUST_PER REUNION_GUST REUNION_GUST_PER USA_SEAHGT USA_SEARAD_NE USA_SEARAD_SE USA_SEARAD_SW USA_SEARAD_NW STORM_SPEED STORM_DIR
1977214N12343 1977 62 NA NA NOT_NAMED 1977-08-01 12:00:00 TS 11.5000 -17.5000 20 hurdat_atl main 126 126 O_____________ hurdat_atl AL041977 11.5000 -17.5000 TD 20 -1 20 270
1977214N12343 1977 62 NA NA NOT_NAMED 1977-08-01 15:00:00 TS 11.5007 -18.5000 main 210 210 P_____________ AL041977 11.5007 -18.5000 TD 22 -1 20 270
1977214N12343 1977 62 NA NA NOT_NAMED 1977-08-01 18:00:00 TS 11.5000 -19.5000 25 hurdat_atl main 310 310 O_____________ hurdat_atl AL041977 11.5000 -19.5000 TD 25 -1 20 270
1977214N12343 1977 62 NA NA NOT_NAMED 1977-08-01 21:00:00 TS 11.4997 -20.5000 main 415 415 P_____________ AL041977 11.4997 -20.5000 TD 25 -1 20 270
1977214N12343 1977 62 NA NA NOT_NAMED 1977-08-02 00:00:00 TS 11.5000 -21.5000 25 hurdat_atl main 521 521 O_____________ hurdat_atl AL041977 11.5000 -21.5000 TD 25 -1 20 270
1977214N12343 1977 62 NA NA NOT_NAMED 1977-08-02 03:00:00 TS 11.4997 -22.5000 main 628 628 P_____________ AL041977 11.4997 -22.5000 TD 27 -1 20 270
1977214N12343 1977 62 NA NA NOT_NAMED 1977-08-02 06:00:00 TS 11.5000 -23.5000 30 hurdat_atl main 736 736 O_____________ hurdat_atl AL041977 11.5000 -23.5000 TD 30 -1 20 270
1977214N12343 1977 62 NA NA NOT_NAMED 1977-08-02 09:00:00 TS 11.4924 -24.5300 main 838 838 P_____________ AL041977 11.4924 -24.5300 TD 30 -1 20 270
1977214N12343 1977 62 NA NA NOT_NAMED 1977-08-02 12:00:00 TS 11.5000 -25.5000 30 hurdat_atl main 937 937 O_____________ hurdat_atl AL041977 11.5000 -25.5000 TD 30 -1 18 272
1977214N12343 1977 62 NA NA NOT_NAMED 1977-08-02 15:00:00 TS 11.5420 -26.3299 main 1018 1018 P_____________ AL041977 11.5420 -26.3299 TD 30 -1 16 274
1977214N12343 1977 62 NA NA NOT_NAMED 1977-08-02 18:00:00 TS 11.6000 -27.1000 30 hurdat_atl main 1096 1096 O_____________ hurdat_atl AL041977 11.6000 -27.1000 TD 30 -1 15 274
1977214N12343 1977 62 NA NA NOT_NAMED 1977-08-02 21:00:00 TS 11.6498 -27.9000 main 1178 1175 P_____________ AL041977 11.6498 -27.9000 TD 30 -1 16 274
1977214N12343 1977 62 NA NA NOT_NAMED 1977-08-03 00:00:00 TS 11.7000 -28.7000 30 hurdat_atl main 1258 1258 O_____________ hurdat_atl AL041977 11.7000 -28.7000 TD 30 -1 16 273
1977214N12343 1977 62 NA NA NOT_NAMED 1977-08-03 03:00:00 TS 11.7422 -29.4926 main 1342 1342 P_____________ AL041977 11.7422 -29.4926 TD 30 -1 16 274
1977214N12343 1977 62 NA NA NOT_NAMED 1977-08-03 06:00:00 TS 11.8000 -30.3000 30 hurdat_atl main 1423 1423 O_____________ hurdat_atl AL041977 11.8000 -30.3000 TD 30 -1 16 275
1977214N12343 1977 62 NA NA NOT_NAMED 1977-08-03 09:00:00 TS 11.8774 -31.1576 main 1515 1515 P_____________ AL041977 11.8774 -31.1576 TD 30 -1 17 277
1977214N12343 1977 62 NA NA NOT_NAMED 1977-08-03 12:00:00 TS 12.0000 -32.0000 30 hurdat_atl main 1598 1598 O_____________ hurdat_atl AL041977 12.0000 -32.0000 TD 30 -1 16 281
1977214N12343 1977 62 NA NA NOT_NAMED 1977-08-03 15:00:00 TS 12.1847 -32.7650 main 1678 1678 P_____________ AL041977 12.1847 -32.7650 TD 30 -1 15 285
1977214N12343 1977 62 NA NA NOT_NAMED 1977-08-03 18:00:00 TS 12.4000 -33.5000 30 hurdat_atl main 1749 1749 O_____________ hurdat_atl AL041977 12.4000 -33.5000 TD 30 -1 15 286
1977214N12343 1977 62 NA NA NOT_NAMED 1977-08-03 21:00:00 TS 12.5998 -34.2501 main 1830 1830 P_____________ AL041977 12.5998 -34.2501 TD 27 -1 15 285
1977214N12343 1977 62 NA NA NOT_NAMED 1977-08-04 00:00:00 TS 12.8000 -35.0000 25 hurdat_atl main 1837 1831 O_____________ hurdat_atl AL041977 12.8000 -35.0000 TD 25 -1 15 286
1977214N12343 1977 62 NA NA NOT_NAMED 1977-08-04 03:00:00 TS 13.0073 -35.7500 main 1835 1832 P_____________ AL041977 13.0073 -35.7500 TD 25 -1 15 285
1977214N12343 1977 62 NA NA NOT_NAMED 1977-08-04 06:00:00 TS 13.2000 -36.5000 25 hurdat_atl main 1840 1836 O_____________ hurdat_atl AL041977 13.2000 -36.5000 TD 25 -1 15 284
1977214N12343 1977 62 NA NA NOT_NAMED 1977-08-04 09:00:00 TS 13.3604 -37.2499 main 1848 1787 P_____________ AL041977 13.3604 -37.2499 TD 22 -1 15 282
1977214N12343 1977 62 NA NA NOT_NAMED 1977-08-04 12:00:00 TS 13.5000 -38.0000 20 hurdat_atl main 1787 O_____________ hurdat_atl AL041977 13.5000 -38.0000 TD 20 -1 15 281

About IBTrACS Database

This database is a web-friendly format of International Best Track Archive for Climate Stewardship (IBTrACS), a global best track data archive curated by NOAA dating back to 1842.

Updated: 2021-12-03